Hunter M — WDE8140 — position and weather

sailwx.info

Track history (hours):
 
Tides and Currents Weather Stations Pressure Air Temp Water Temp Dewpoint Dewpoint Depression Visibility Wind Speed Wind Dir Waves Ship Positions

Hunter M

Owner: G & H Towing Company, Galveston, TX. More information available from US FCC via Universal Licensing System and Coast Guard Vessel Documentation Center.

Last reported at 2017-Nov-23 23:40 UTC. Time now 2017-Nov-24 00:05 UTC.
Position N 29°45' W 095°06'.

Length 30 m; draft 6.2 m.

Type: Tug. MMSI: 367402050.

Date/timePositionNaut miles runAvg speedWind from/ knotsBaromVisibWave heightAir tempDewpointWater temp
2017-Nov-23 23:40N 29°45' W 095°06'0 0.4
2017-Nov-23 23:04N 29°45' W 095°06'0 0.0
2017-Nov-23 22:53N 29°45' W 095°06'2 0.5
2017-Nov-23 19:14N 29°44' W 095°07'0 0.0
2017-Nov-23 19:00N 29°44' W 095°07'0 0.6
2017-Nov-23 18:28N 29°44' W 095°07'3 4.0
2017-Nov-23 17:46N 29°45' W 095°04'3 6.0
2017-Nov-23 17:20N 29°44' W 095°02'2 5.1
2017-Nov-23 17:00N 29°42' W 095°01'0 0.3
2017-Nov-23 16:27N 29°42' W 095°01'0 0.0
2017-Nov-23 16:00N 29°42' W 095°01'0 0.0
2017-Nov-23 15:30N 29°42' W 095°01'1 1.9
2017-Nov-23 14:59N 29°43' W 095°01'1 1.2
2017-Nov-23 14:30N 29°44' W 095°01'0 0.0
2017-Nov-23 14:00N 29°44' W 095°01'0 0.1
2017-Nov-23 13:30N 29°44' W 095°01'1 2.9
2017-Nov-23 13:00N 29°42' W 095°01'0 0.0
2017-Nov-23 12:30N 29°42' W 095°01'2 3.1
2017-Nov-23 11:59N 29°41' W 095°00'0 0.2
2017-Nov-23 11:30N 29°41' W 095°00'0 0.2
2017-Nov-23 11:00N 29°41' W 095°00'2 3.1
2017-Nov-23 10:30N 29°40' W 094°59'1 1.9
2017-Nov-23 09:59N 29°41' W 094°59'0 0.0
2017-Nov-23 09:29N 29°41' W 094°59'0 0.0
2017-Nov-23 08:59N 29°41' W 094°59'0 0.0
2017-Nov-23 08:29N 29°41' W 094°59'0 0.0
2017-Nov-23 07:59N 29°41' W 094°59'1 0.8
2017-Nov-23 07:07N 29°41' W 095°00'0 0.2
2017-Nov-23 07:00N 29°41' W 095°00'0 0.7
2017-Nov-23 06:29N 29°41' W 094°60'0 0.0
2017-Nov-23 05:59N 29°41' W 094°60'0 0.0
2017-Nov-23 05:29N 29°41' W 094°60'0 0.0
2017-Nov-23 04:59N 29°41' W 094°60'0 0.0
2017-Nov-23 04:29N 29°41' W 094°60'4 7.9
2017-Nov-23 04:00N 29°38' W 094°58'4 7.1
2017-Nov-23 03:30N 29°37' W 095°02'0 0.1
2017-Nov-23 03:00N 29°37' W 095°02'1 2.0
2017-Nov-23 02:31N 29°37' W 095°00'0 0.1
2017-Nov-23 02:00N 29°37' W 095°00'1 1.9
2017-Nov-23 01:30N 29°37' W 095°01'1 2.5
2017-Nov-23 01:01N 29°37' W 095°00'2 3.3
2017-Nov-23 00:30N 29°37' W 094°58'4 8.4
2017-Nov-23 00:00N 29°41' W 094°59'2 0.9
2017-Nov-22 21:30N 29°42' W 095°01'0 0.0
2017-Nov-22 21:00N 29°42' W 095°01'2 4.5
2017-Nov-22 20:30N 29°41' W 094°59'1 2.8
2017-Nov-22 20:00N 29°41' W 095°01'2 3.7
2017-Nov-22 19:30N 29°40' W 094°59'  
2017-Nov-20 00:31N 29°39' W 094°58'3 5.6
2017-Nov-19 23:59N 29°37' W 095°00'1 1.1
2017-Nov-19 23:25N 29°37' W 095°01'0 0.8
2017-Nov-19 23:00N 29°37' W 095°01'3 5.7
2017-Nov-19 22:31N 29°37' W 094°57'1 1.1
2017-Nov-19 21:45N 29°36' W 094°57'2 8.8
2017-Nov-19 21:30N 29°37' W 094°59'0 0.3
2017-Nov-19 19:35N 29°37' W 095°00'0 0.0
2017-Nov-19 19:29N 29°37' W 095°00'0 0.0
2017-Nov-19 18:35N 29°37' W 095°00'0 0.0
2017-Nov-19 18:26N 29°37' W 095°00'0 0.0
2017-Nov-19 17:38N 29°37' W 095°00'0 0.0
2017-Nov-19 17:29N 29°37' W 095°00'0 0.0
2017-Nov-19 16:57N 29°37' W 095°00'1 3.0
2017-Nov-19 16:30N 29°37' W 094°58'1 2.7
2017-Nov-19 16:00N 29°37' W 095°00'1 1.9
2017-Nov-19 15:29N 29°37' W 095°01'0 0.0
2017-Nov-19 14:58N 29°37' W 095°01'2 4.3
2017-Nov-19 14:30N 29°37' W 094°59'1 2.1
2017-Nov-19 13:57N 29°37' W 094°58'3 5.9
2017-Nov-19 13:27N 29°40' W 094°58'2 3.0
2017-Nov-19 12:55N 29°41' W 094°60'0 0.0
2017-Nov-19 12:28N 29°41' W 094°60'0 0.0
2017-Nov-19 11:58N 29°41' W 094°60'0 0.0
2017-Nov-19 11:28N 29°41' W 094°60'0 0.0
2017-Nov-19 10:58N 29°41' W 094°60'0 0.0
2017-Nov-19 10:28N 29°41' W 094°60'0 0.0
2017-Nov-19 09:07N 29°41' W 094°60'0 0.0
2017-Nov-19 08:58N 29°41' W 094°60'0 0.0
2017-Nov-19 08:19N 29°41' W 094°60'0 0.0
2017-Nov-19 07:52N 29°41' W 094°60'0 0.0
2017-Nov-19 04:43N 29°41' W 094°60'0 0.0
2017-Nov-19 04:25N 29°41' W 094°60'0 0.0
2017-Nov-19 03:25N 29°41' W 094°60'0 0.0
2017-Nov-19 02:58N 29°41' W 094°60'0 0.0
2017-Nov-19 02:25N 29°41' W 094°60'0 0.0
2017-Nov-19 01:49N 29°41' W 094°60'0 0.0
2017-Nov-19 01:16N 29°41' W 094°60'0 0.0
2017-Nov-19 00:46N 29°41' W 094°60'0 0.0
2017-Nov-19 00:28N 29°41' W 094°60'0 0.0
2017-Nov-18 23:58N 29°41' W 094°60'0 0.0
2017-Nov-18 23:24N 29°41' W 094°60'2 5.6
2017-Nov-18 22:59N 29°43' W 095°01'0 0.5
2017-Nov-18 22:24N 29°43' W 095°01'1 1.9
2017-Nov-18 22:00N 29°42' W 095°01'0 0.0
2017-Nov-18 19:47N 29°42' W 095°01'0 0.0
2017-Nov-18 19:23N 29°42' W 095°01'1 3.4
2017-Nov-18 18:58N 29°44' W 095°01'1 0.5
2017-Nov-18 17:37N 29°43' W 095°01'1 3.9
2017-Nov-18 17:25N 29°42' W 095°01'0 0.0
2017-Nov-18 16:58N 29°42' W 095°01'0 0.0
2017-Nov-18 16:28N 29°42' W 095°01'0 0.0
2017-Nov-18 15:58N 29°42' W 095°01'0 0.0
2017-Nov-18 15:28N 29°42' W 095°01'0 0.0
2017-Nov-18 14:58N 29°42' W 095°01'0 0.0
2017-Nov-18 14:28N 29°42' W 095°01'2 4.5
2017-Nov-18 14:00N 29°41' W 094°59'4 8.8
2017-Nov-18 13:30N 29°37' W 094°58'2 4.1
2017-Nov-18 13:00N 29°37' W 095°00'0 0.1
2017-Nov-18 12:30N 29°37' W 095°00'0 0.4
2017-Nov-18 12:00N 29°37' W 095°00'0 0.1
2017-Nov-18 11:30N 29°37' W 095°00'0 1.0
2017-Nov-18 11:00N 29°37' W 095°01'3 6.0
2017-Nov-18 10:30N 29°37' W 094°57'2 3.4
2017-Nov-18 10:00N 29°38' W 094°58'5 9.3
2017-Nov-18 09:30N 29°42' W 095°01'0 0.4
2017-Nov-18 08:43N 29°42' W 095°01'0 0.0
2017-Nov-18 08:28N 29°42' W 095°01'0 0.0
2017-Nov-18 07:58N 29°42' W 095°01'0 0.0
2017-Nov-18 07:28N 29°42' W 095°01'0 0.0
2017-Nov-18 06:58N 29°42' W 095°01'0 0.0
2017-Nov-18 06:28N 29°42' W 095°01'0 0.0
2017-Nov-18 05:22N 29°42' W 095°01'0 0.0
2017-Nov-18 04:55N 29°42' W 095°01'0 0.0
2017-Nov-18 04:28N 29°42' W 095°01'0 0.0
2017-Nov-18 03:58N 29°42' W 095°01'0 0.0
2017-Nov-18 03:22N 29°42' W 095°01'0 0.0
2017-Nov-18 02:58N 29°42' W 095°01'1 0.6
2017-Nov-18 00:49N 29°44' W 095°01'1 2.7
2017-Nov-18 00:29N 29°44' W 095°02'1 1.3
2017-Nov-18 00:00N 29°44' W 095°03'3 5.4
2017-Nov-17 23:31N 29°42' W 095°01'2 2.4
2017-Nov-17 22:44N 29°41' W 094°59'0 0.0
2017-Nov-17 21:35N 29°41' W 094°59'0 0.0
2017-Nov-17 21:29N 29°41' W 094°59'0 0.0
2017-Nov-17 20:53N 29°41' W 094°59'0 0.0
2017-Nov-17 20:29N 29°41' W 094°59'0 0.3
2017-Nov-17 19:59N 29°41' W 094°59'1 2.2
2017-Nov-17 19:31N 29°41' W 095°00'0 0.1
2017-Nov-17 19:00N 29°41' W 095°00'0 0.1
2017-Nov-17 16:17N 29°41' W 094°60'1 1.4
2017-Nov-17 15:55N 29°41' W 095°00'0 0.5
2017-Nov-17 15:30N 29°41' W 095°00'2 3.6
2017-Nov-17 15:01N 29°40' W 094°58'1 2.6
2017-Nov-17 14:29N 29°41' W 094°59'0 0.0
2017-Nov-17 13:59N 29°41' W 094°59'0 0.0
2017-Nov-17 13:29N 29°41' W 094°59'0 0.0
2017-Nov-17 12:59N 29°41' W 094°59'0 0.0
2017-Nov-17 12:30N 29°41' W 094°59'0 0.3
2017-Nov-17 12:00N 29°41' W 094°60'1 2.7
2017-Nov-17 11:29N 29°42' W 095°00'1 1.1
2017-Nov-17 10:56N 29°42' W 095°01'0 0.0
2017-Nov-17 10:29N 29°42' W 095°01'0 0.0
2017-Nov-17 09:56N 29°42' W 095°01'0 0.0
2017-Nov-17 09:26N 29°42' W 095°01'0 0.0
2017-Nov-17 08:59N 29°42' W 095°01'0 0.0
2017-Nov-17 08:20N 29°42' W 095°01'0 0.0
2017-Nov-17 07:59N 29°42' W 095°01'0 0.0
2017-Nov-17 07:29N 29°42' W 095°01'0 0.0
2017-Nov-17 06:59N 29°42' W 095°01'0 0.0
2017-Nov-17 06:29N 29°42' W 095°01'0 0.0
2017-Nov-17 05:56N 29°42' W 095°01'0 0.0
2017-Nov-17 05:26N 29°42' W 095°01'0 0.0
2017-Nov-17 04:59N 29°42' W 095°01'0 0.0
2017-Nov-17 04:29N 29°42' W 095°01'0 0.0
2017-Nov-17 03:59N 29°42' W 095°01'0 0.0
2017-Nov-17 03:26N 29°42' W 095°01'0 0.0
2017-Nov-17 02:59N 29°42' W 095°01'0 0.0
2017-Nov-17 02:26N 29°42' W 095°01'0 0.0
2017-Nov-17 01:59N 29°42' W 095°01'2 2.0
2017-Nov-17 00:44N 29°44' W 095°03'2 8.3
2017-Nov-17 00:30N 29°43' W 095°01'1 1.3
2017-Nov-16 23:53N 29°42' W 095°01'0 0.0
2017-Nov-16 23:29N 29°42' W 095°01'0 0.0
2017-Nov-16 22:56N 29°42' W 095°01'1 0.9
2017-Nov-16 21:23N 29°44' W 095°01'1 4.0
2017-Nov-16 21:01N 29°42' W 095°01'2 1.4
2017-Nov-16 19:54N 29°44' W 095°01'1 1.2
2017-Nov-16 19:14N 29°43' W 095°01'1 3.5
2017-Nov-16 18:59N 29°42' W 095°01'1 3.2
2017-Nov-16 18:31N 29°41' W 094°60'0 0.0
2017-Nov-16 17:59N 29°41' W 094°60'0 0.0
2017-Nov-16 17:26N 29°41' W 094°60'0 0.0
2017-Nov-16 16:56N 29°41' W 094°60'0 0.0
2017-Nov-16 16:29N 29°41' W 094°60'0 0.0
2017-Nov-16 15:59N 29°41' W 094°60'0 0.4
2017-Nov-16 15:31N 29°41' W 094°60'1 1.7
2017-Nov-16 14:59N 29°41' W 095°01'1 1.6
2017-Nov-16 14:30N 29°41' W 094°60'0 0.0
2017-Nov-16 14:00N 29°41' W 094°60'0 0.0
2017-Nov-16 13:30N 29°41' W 094°60'0 0.0
2017-Nov-16 13:00N 29°41' W 094°60'2 3.6
2017-Nov-16 12:30N 29°40' W 094°58'3 6.2
2017-Nov-16 12:00N 29°37' W 094°60'0 0.6
2017-Nov-16 11:30N 29°37' W 095°00'1 1.8
2017-Nov-16 11:00N 29°37' W 095°01'2 3.1
2017-Nov-16 10:30N 29°37' W 094°60'3 6.1
2017-Nov-16 10:00N 29°35' W 094°56'3 6.4
2017-Nov-16 09:30N 29°38' W 094°58'3 5.9
2017-Nov-16 09:00N 29°41' W 094°60'0 0.0
2017-Nov-16 08:30N 29°41' W 094°60'0 0.0
2017-Nov-16 08:00N 29°41' W 094°60'0 0.0
2017-Nov-16 07:30N 29°41' W 094°60'0 0.0
2017-Nov-16 06:54N 29°41' W 094°60'0 0.0
2017-Nov-16 06:24N 29°41' W 094°60'0 0.0
2017-Nov-16 04:48N 29°41' W 094°60'0 0.0
2017-Nov-16 04:21N 29°41' W 094°60'0 0.0
2017-Nov-16 04:00N 29°41' W 094°60'0 0.0
2017-Nov-16 03:27N 29°41' W 094°60'0 0.0
2017-Nov-16 03:00N 29°41' W 094°60'0 0.0
2017-Nov-16 02:27N 29°41' W 094°60'0 0.0
2017-Nov-16 02:00N 29°41' W 094°60'0 0.0
2017-Nov-16 01:30N 29°41' W 094°60'0 0.0
2017-Nov-16 01:00N 29°41' W 094°60'0 0.0
2017-Nov-16 00:30N 29°41' W 094°60'0 0.0
2017-Nov-15 23:57N 29°41' W 094°60'0 0.2
2017-Nov-15 23:28N 29°41' W 094°60'0 0.9
2017-Nov-15 23:00N 29°41' W 094°59'1 2.3
2017-Nov-15 22:30N 29°40' W 094°59'3 6.4
2017-Nov-15 22:00N 29°42' W 095°01'0 0.0
2017-Nov-15 21:18N 29°42' W 095°01'0 0.0
2017-Nov-15 20:54N 29°42' W 095°01'0 0.2
2017-Nov-15 20:31N 29°42' W 095°01'0 0.2
2017-Nov-15 20:00N 29°42' W 095°01'0 0.0
2017-Nov-15 19:30N 29°42' W 095°01'0 0.0
2017-Nov-15 19:00N 29°42' W 095°01'0 0.0
2017-Nov-15 18:30N 29°42' W 095°01'0 0.0
2017-Nov-15 18:00N 29°42' W 095°01'0 0.0
2017-Nov-15 17:30N 29°42' W 095°01'0 0.0
2017-Nov-15 17:00N 29°42' W 095°01'0 0.0
2017-Nov-15 16:30N 29°42' W 095°01'0 0.0
2017-Nov-15 16:00N 29°42' W 095°01'0 0.0
2017-Nov-15 15:31N 29°42' W 095°01'0 0.0
2017-Nov-15 15:01N 29°42' W 095°01'0 0.0
2017-Nov-15 13:28N 29°42' W 095°01'3 6.6
2017-Nov-15 13:01N 29°40' W 094°59'4 6.8
2017-Nov-15 12:29N 29°37' W 094°60'1 1.5
2017-Nov-15 12:01N 29°37' W 095°01'0 0.4
2017-Nov-15 11:30N 29°37' W 095°01'3 5.1
2017-Nov-15 11:01N 29°37' W 094°58'1 1.4
2017-Nov-15 10:23N 29°36' W 094°57'4 9.8
2017-Nov-15 10:00N 29°40' W 094°59'3 6.3
2017-Nov-15 09:30N 29°42' W 095°01'0 0.0
2017-Nov-15 09:00N 29°42' W 095°01'0 0.0
2017-Nov-15 08:30N 29°42' W 095°01'0 0.0
2017-Nov-15 07:54N 29°42' W 095°01'0 0.0
2017-Nov-15 07:30N 29°42' W 095°01'0 0.0
2017-Nov-15 07:00N 29°42' W 095°01'0 0.0
2017-Nov-15 06:30N 29°42' W 095°01'0 0.0
2017-Nov-15 06:00N 29°42' W 095°01'0 0.0
2017-Nov-15 05:24N 29°42' W 095°01'0 0.0
2017-Nov-15 05:00N 29°42' W 095°01'0 0.0
2017-Nov-15 04:30N 29°42' W 095°01'0 0.0
2017-Nov-15 04:00N 29°42' W 095°01'0 0.0
2017-Nov-15 03:30N 29°42' W 095°01'0 0.0
2017-Nov-15 03:00N 29°42' W 095°01'0 0.0
2017-Nov-15 02:30N 29°42' W 095°01'0 0.0
2017-Nov-15 02:00N 29°42' W 095°01'0 0.0
2017-Nov-15 01:30N 29°42' W 095°01'1 1.2
2017-Nov-15 00:22N 29°44' W 095°01'2 2.6
2017-Nov-14 23:44N 29°44' W 095°03'2 6.7
2017-Nov-14 23:30N 29°44' W 095°01'1 2.8
2017-Nov-14 23:00N 29°42' W 095°01'0 0.0
2017-Nov-14 22:30N 29°42' W 095°01'0 0.0
2017-Nov-14 22:00N 29°42' W 095°01'0 0.0
2017-Nov-14 21:30N 29°42' W 095°01'0 0.0
2017-Nov-14 20:51N 29°42' W 095°01'0 0.0
2017-Nov-14 20:21N 29°42' W 095°01'0 0.0
2017-Nov-14 19:51N 29°42' W 095°01'2 5.4
2017-Nov-14 19:30N 29°41' W 094°60'1 1.6
2017-Nov-14 18:58N 29°41' W 095°01'0 0.2
2017-Nov-14 18:30N 29°41' W 095°00'2 3.5
2017-Nov-14 18:00N 29°40' W 094°59'1 1.9
2017-Nov-14 17:25N 29°41' W 094°60'0 0.0
2017-Nov-14 16:58N 29°41' W 094°60'0 0.0
2017-Nov-14 16:28N 29°41' W 094°60'0 0.0
2017-Nov-14 15:56N 29°41' W 094°60'0 0.7
2017-Nov-14 15:28N 29°41' W 095°00'0 1.1
2017-Nov-14 15:00N 29°41' W 094°60'0 0.8
2017-Nov-14 14:30N 29°41' W 094°59'0 0.0
2017-Nov-14 14:00N 29°41' W 094°59'0 0.4
2017-Nov-14 13:30N 29°41' W 094°59'0 0.1
2017-Nov-14 13:01N 29°41' W 094°59'2 3.7
2017-Nov-14 12:30N 29°42' W 095°01'0 0.2
2017-Nov-14 12:00N 29°42' W 095°01'0 0.0
2017-Nov-14 11:27N 29°42' W 095°01'0 0.0
2017-Nov-14 10:57N 29°42' W 095°01'0 0.0
2017-Nov-14 10:30N 29°42' W 095°01'0 0.0
2017-Nov-14 09:57N 29°42' W 095°01'0 0.0
2017-Nov-14 09:30N 29°42' W 095°01'0 0.0
2017-Nov-14 09:00N 29°42' W 095°01'0 0.0
2017-Nov-14 08:30N 29°42' W 095°01'0 0.0
2017-Nov-14 07:57N 29°42' W 095°01'0 0.0
2017-Nov-14 07:30N 29°42' W 095°01'0 0.0
2017-Nov-14 07:00N 29°42' W 095°01'0 0.0
2017-Nov-14 06:30N 29°42' W 095°01'0 0.0
2017-Nov-14 06:00N 29°42' W 095°01'0 0.0
2017-Nov-14 05:30N 29°42' W 095°01'0 0.0
2017-Nov-14 04:57N 29°42' W 095°01'0 0.0
2017-Nov-14 04:30N 29°42' W 095°01'0 0.0
2017-Nov-14 04:00N 29°42' W 095°01'0 0.0
2017-Nov-14 03:30N 29°42' W 095°01'0 0.0
2017-Nov-14 03:00N 29°42' W 095°01'0 0.0
2017-Nov-14 02:30N 29°42' W 095°01'0 0.0
2017-Nov-14 02:00N 29°42' W 095°01'2 2.9
2017-Nov-14 01:29N 29°44' W 095°02'  
Track history (hours):
 
Tides and Currents Weather Stations Pressure Air Temp Water Temp Dewpoint Dewpoint Depression Visibility Wind Speed Wind Dir Waves Ship Positions

Hunter M

Owner: G & H Towing Company, Galveston, TX. More information available from US FCC via Universal Licensing System and Coast Guard Vessel Documentation Center.

Last reported at 2017-Nov-23 23:40 UTC. Time now 2017-Nov-24 00:05 UTC.
Position N 29°45' W 095°06'.

Length 30 m; draft 6.2 m.

Type: Tug. MMSI: 367402050.

Date/timePositionNaut miles runAvg speedWind from/ knotsBaromVisibWave heightAir tempDewpointWater temp
2017-Nov-23 23:40N 29°45' W 095°06'0 0.4
2017-Nov-23 23:04N 29°45' W 095°06'0 0.0
2017-Nov-23 22:53N 29°45' W 095°06'2 0.5
2017-Nov-23 19:14N 29°44' W 095°07'0 0.0
2017-Nov-23 19:00N 29°44' W 095°07'0 0.6
2017-Nov-23 18:28N 29°44' W 095°07'3 4.0
2017-Nov-23 17:46N 29°45' W 095°04'3 6.0
2017-Nov-23 17:20N 29°44' W 095°02'2 5.1
2017-Nov-23 17:00N 29°42' W 095°01'0 0.3
2017-Nov-23 16:27N 29°42' W 095°01'0 0.0
2017-Nov-23 16:00N 29°42' W 095°01'0 0.0
2017-Nov-23 15:30N 29°42' W 095°01'1 1.9
2017-Nov-23 14:59N 29°43' W 095°01'1 1.2
2017-Nov-23 14:30N 29°44' W 095°01'0 0.0
2017-Nov-23 14:00N 29°44' W 095°01'0 0.1
2017-Nov-23 13:30N 29°44' W 095°01'1 2.9
2017-Nov-23 13:00N 29°42' W 095°01'0 0.0
2017-Nov-23 12:30N 29°42' W 095°01'2 3.1
2017-Nov-23 11:59N 29°41' W 095°00'0 0.2
2017-Nov-23 11:30N 29°41' W 095°00'0 0.2
2017-Nov-23 11:00N 29°41' W 095°00'2 3.1
2017-Nov-23 10:30N 29°40' W 094°59'1 1.9
2017-Nov-23 09:59N 29°41' W 094°59'0 0.0
2017-Nov-23 09:29N 29°41' W 094°59'0 0.0
2017-Nov-23 08:59N 29°41' W 094°59'0 0.0
2017-Nov-23 08:29N 29°41' W 094°59'0 0.0
2017-Nov-23 07:59N 29°41' W 094°59'1 0.8
2017-Nov-23 07:07N 29°41' W 095°00'0 0.2
2017-Nov-23 07:00N 29°41' W 095°00'0 0.7
2017-Nov-23 06:29N 29°41' W 094°60'0 0.0
2017-Nov-23 05:59N 29°41' W 094°60'0 0.0
2017-Nov-23 05:29N 29°41' W 094°60'0 0.0
2017-Nov-23 04:59N 29°41' W 094°60'0 0.0
2017-Nov-23 04:29N 29°41' W 094°60'4 7.9
2017-Nov-23 04:00N 29°38' W 094°58'4 7.1
2017-Nov-23 03:30N 29°37' W 095°02'0 0.1
2017-Nov-23 03:00N 29°37' W 095°02'1 2.0
2017-Nov-23 02:31N 29°37' W 095°00'0 0.1
2017-Nov-23 02:00N 29°37' W 095°00'1 1.9
2017-Nov-23 01:30N 29°37' W 095°01'1 2.5
2017-Nov-23 01:01N 29°37' W 095°00'2 3.3
2017-Nov-23 00:30N 29°37' W 094°58'4 8.4
2017-Nov-23 00:00N 29°41' W 094°59'2 0.9
2017-Nov-22 21:30N 29°42' W 095°01'0 0.0
2017-Nov-22 21:00N 29°42' W 095°01'2 4.5
2017-Nov-22 20:30N 29°41' W 094°59'1 2.8
2017-Nov-22 20:00N 29°41' W 095°01'2 3.7
2017-Nov-22 19:30N 29°40' W 094°59'  
2017-Nov-20 00:31N 29°39' W 094°58'3 5.6
2017-Nov-19 23:59N 29°37' W 095°00'1 1.1
2017-Nov-19 23:25N 29°37' W 095°01'0 0.8
2017-Nov-19 23:00N 29°37' W 095°01'3 5.7
2017-Nov-19 22:31N 29°37' W 094°57'1 1.1
2017-Nov-19 21:45N 29°36' W 094°57'2 8.8
2017-Nov-19 21:30N 29°37' W 094°59'0 0.3
2017-Nov-19 19:35N 29°37' W 095°00'0 0.0
2017-Nov-19 19:29N 29°37' W 095°00'0 0.0
2017-Nov-19 18:35N 29°37' W 095°00'0 0.0
2017-Nov-19 18:26N 29°37' W 095°00'0 0.0
2017-Nov-19 17:38N 29°37' W 095°00'0 0.0
2017-Nov-19 17:29N 29°37' W 095°00'0 0.0
2017-Nov-19 16:57N 29°37' W 095°00'1 3.0
2017-Nov-19 16:30N 29°37' W 094°58'1 2.7
2017-Nov-19 16:00N 29°37' W 095°00'1 1.9
2017-Nov-19 15:29N 29°37' W 095°01'0 0.0
2017-Nov-19 14:58N 29°37' W 095°01'2 4.3
2017-Nov-19 14:30N 29°37' W 094°59'1 2.1
2017-Nov-19 13:57N 29°37' W 094°58'3 5.9
2017-Nov-19 13:27N 29°40' W 094°58'2 3.0
2017-Nov-19 12:55N 29°41' W 094°60'0 0.0
2017-Nov-19 12:28N 29°41' W 094°60'0 0.0
2017-Nov-19 11:58N 29°41' W 094°60'0 0.0
2017-Nov-19 11:28N 29°41' W 094°60'0 0.0
2017-Nov-19 10:58N 29°41' W 094°60'0 0.0
2017-Nov-19 10:28N 29°41' W 094°60'0 0.0
2017-Nov-19 09:07N 29°41' W 094°60'0 0.0
2017-Nov-19 08:58N 29°41' W 094°60'0 0.0
2017-Nov-19 08:19N 29°41' W 094°60'0 0.0
2017-Nov-19 07:52N 29°41' W 094°60'0 0.0
2017-Nov-19 04:43N 29°41' W 094°60'0 0.0
2017-Nov-19 04:25N 29°41' W 094°60'0 0.0
2017-Nov-19 03:25N 29°41' W 094°60'0 0.0
2017-Nov-19 02:58N 29°41' W 094°60'0 0.0
2017-Nov-19 02:25N 29°41' W 094°60'0 0.0
2017-Nov-19 01:49N 29°41' W 094°60'0 0.0
2017-Nov-19 01:16N 29°41' W 094°60'0 0.0
2017-Nov-19 00:46N 29°41' W 094°60'0 0.0
2017-Nov-19 00:28N 29°41' W 094°60'0 0.0
2017-Nov-18 23:58N 29°41' W 094°60'0 0.0
2017-Nov-18 23:24N 29°41' W 094°60'2 5.6
2017-Nov-18 22:59N 29°43' W 095°01'0 0.5
2017-Nov-18 22:24N 29°43' W 095°01'1 1.9
2017-Nov-18 22:00N 29°42' W 095°01'0 0.0
2017-Nov-18 19:47N 29°42' W 095°01'0 0.0
2017-Nov-18 19:23N 29°42' W 095°01'1 3.4
2017-Nov-18 18:58N 29°44' W 095°01'1 0.5
2017-Nov-18 17:37N 29°43' W 095°01'1 3.9
2017-Nov-18 17:25N 29°42' W 095°01'0 0.0
2017-Nov-18 16:58N 29°42' W 095°01'0 0.0
2017-Nov-18 16:28N 29°42' W 095°01'0 0.0
2017-Nov-18 15:58N 29°42' W 095°01'0 0.0
2017-Nov-18 15:28N 29°42' W 095°01'0 0.0
2017-Nov-18 14:58N 29°42' W 095°01'0 0.0
2017-Nov-18 14:28N 29°42' W 095°01'2 4.5
2017-Nov-18 14:00N 29°41' W 094°59'4 8.8
2017-Nov-18 13:30N 29°37' W 094°58'2 4.1
2017-Nov-18 13:00N 29°37' W 095°00'0 0.1
2017-Nov-18 12:30N 29°37' W 095°00'0 0.4
2017-Nov-18 12:00N 29°37' W 095°00'0 0.1
2017-Nov-18 11:30N 29°37' W 095°00'0 1.0
2017-Nov-18 11:00N 29°37' W 095°01'3 6.0
2017-Nov-18 10:30N 29°37' W 094°57'2 3.4
2017-Nov-18 10:00N 29°38' W 094°58'5 9.3
2017-Nov-18 09:30N 29°42' W 095°01'0 0.4
2017-Nov-18 08:43N 29°42' W 095°01'0 0.0
2017-Nov-18 08:28N 29°42' W 095°01'0 0.0
2017-Nov-18 07:58N 29°42' W 095°01'0 0.0
2017-Nov-18 07:28N 29°42' W 095°01'0 0.0
2017-Nov-18 06:58N 29°42' W 095°01'0 0.0
2017-Nov-18 06:28N 29°42' W 095°01'0 0.0
2017-Nov-18 05:22N 29°42' W 095°01'0 0.0
2017-Nov-18 04:55N 29°42' W 095°01'0 0.0
2017-Nov-18 04:28N 29°42' W 095°01'0 0.0
2017-Nov-18 03:58N 29°42' W 095°01'0 0.0
2017-Nov-18 03:22N 29°42' W 095°01'0 0.0
2017-Nov-18 02:58N 29°42' W 095°01'1 0.6
2017-Nov-18 00:49N 29°44' W 095°01'1 2.7
2017-Nov-18 00:29N 29°44' W 095°02'1 1.3
2017-Nov-18 00:00N 29°44' W 095°03'3 5.4
2017-Nov-17 23:31N 29°42' W 095°01'2 2.4
2017-Nov-17 22:44N 29°41' W 094°59'0 0.0
2017-Nov-17 21:35N 29°41' W 094°59'0 0.0
2017-Nov-17 21:29N 29°41' W 094°59'0 0.0
2017-Nov-17 20:53N 29°41' W 094°59'0 0.0
2017-Nov-17 20:29N 29°41' W 094°59'0 0.3
2017-Nov-17 19:59N 29°41' W 094°59'1 2.2
2017-Nov-17 19:31N 29°41' W 095°00'0 0.1
2017-Nov-17 19:00N 29°41' W 095°00'0 0.1
2017-Nov-17 16:17N 29°41' W 094°60'1 1.4
2017-Nov-17 15:55N 29°41' W 095°00'0 0.5
2017-Nov-17 15:30N 29°41' W 095°00'2 3.6
2017-Nov-17 15:01N 29°40' W 094°58'1 2.6
2017-Nov-17 14:29N 29°41' W 094°59'0 0.0
2017-Nov-17 13:59N 29°41' W 094°59'0 0.0
2017-Nov-17 13:29N 29°41' W 094°59'0 0.0
2017-Nov-17 12:59N 29°41' W 094°59'0 0.0
2017-Nov-17 12:30N 29°41' W 094°59'0 0.3
2017-Nov-17 12:00N 29°41' W 094°60'1 2.7
2017-Nov-17 11:29N 29°42' W 095°00'1 1.1
2017-Nov-17 10:56N 29°42' W 095°01'0 0.0
2017-Nov-17 10:29N 29°42' W 095°01'0 0.0
2017-Nov-17 09:56N 29°42' W 095°01'0 0.0
2017-Nov-17 09:26N 29°42' W 095°01'0 0.0
2017-Nov-17 08:59N 29°42' W 095°01'0 0.0
2017-Nov-17 08:20N 29°42' W 095°01'0 0.0
2017-Nov-17 07:59N 29°42' W 095°01'0 0.0
2017-Nov-17 07:29N 29°42' W 095°01'0 0.0
2017-Nov-17 06:59N 29°42' W 095°01'0 0.0
2017-Nov-17 06:29N 29°42' W 095°01'0 0.0
2017-Nov-17 05:56N 29°42' W 095°01'0 0.0
2017-Nov-17 05:26N 29°42' W 095°01'0 0.0
2017-Nov-17 04:59N 29°42' W 095°01'0 0.0
2017-Nov-17 04:29N 29°42' W 095°01'0 0.0
2017-Nov-17 03:59N 29°42' W 095°01'0 0.0
2017-Nov-17 03:26N 29°42' W 095°01'0 0.0
2017-Nov-17 02:59N 29°42' W 095°01'0 0.0
2017-Nov-17 02:26N 29°42' W 095°01'0 0.0
2017-Nov-17 01:59N 29°42' W 095°01'2 2.0
2017-Nov-17 00:44N 29°44' W 095°03'2 8.3
2017-Nov-17 00:30N 29°43' W 095°01'1 1.3
2017-Nov-16 23:53N 29°42' W 095°01'0 0.0
2017-Nov-16 23:29N 29°42' W 095°01'0 0.0
2017-Nov-16 22:56N 29°42' W 095°01'1 0.9
2017-Nov-16 21:23N 29°44' W 095°01'1 4.0
2017-Nov-16 21:01N 29°42' W 095°01'2 1.4
2017-Nov-16 19:54N 29°44' W 095°01'1 1.2
2017-Nov-16 19:14N 29°43' W 095°01'1 3.5
2017-Nov-16 18:59N 29°42' W 095°01'1 3.2
2017-Nov-16 18:31N 29°41' W 094°60'0 0.0
2017-Nov-16 17:59N 29°41' W 094°60'0 0.0
2017-Nov-16 17:26N 29°41' W 094°60'0 0.0
2017-Nov-16 16:56N 29°41' W 094°60'0 0.0
2017-Nov-16 16:29N 29°41' W 094°60'0 0.0
2017-Nov-16 15:59N 29°41' W 094°60'0 0.4
2017-Nov-16 15:31N 29°41' W 094°60'1 1.7
2017-Nov-16 14:59N 29°41' W 095°01'1 1.6
2017-Nov-16 14:30N 29°41' W 094°60'0 0.0
2017-Nov-16 14:00N 29°41' W 094°60'0 0.0
2017-Nov-16 13:30N 29°41' W 094°60'0 0.0
2017-Nov-16 13:00N 29°41' W 094°60'2 3.6
2017-Nov-16 12:30N 29°40' W 094°58'3 6.2
2017-Nov-16 12:00N 29°37' W 094°60'0 0.6
2017-Nov-16 11:30N 29°37' W 095°00'1 1.8
2017-Nov-16 11:00N 29°37' W 095°01'2 3.1
2017-Nov-16 10:30N 29°37' W 094°60'3 6.1
2017-Nov-16 10:00N 29°35' W 094°56'3 6.4
2017-Nov-16 09:30N 29°38' W 094°58'3 5.9
2017-Nov-16 09:00N 29°41' W 094°60'0 0.0
2017-Nov-16 08:30N 29°41' W 094°60'0 0.0
2017-Nov-16 08:00N 29°41' W 094°60'0 0.0
2017-Nov-16 07:30N 29°41' W 094°60'0 0.0
2017-Nov-16 06:54N 29°41' W 094°60'0 0.0
2017-Nov-16 06:24N 29°41' W 094°60'0 0.0
2017-Nov-16 04:48N 29°41' W 094°60'0 0.0
2017-Nov-16 04:21N 29°41' W 094°60'0 0.0
2017-Nov-16 04:00N 29°41' W 094°60'0 0.0
2017-Nov-16 03:27N 29°41' W 094°60'0 0.0
2017-Nov-16 03:00N 29°41' W 094°60'0 0.0
2017-Nov-16 02:27N 29°41' W 094°60'0 0.0
2017-Nov-16 02:00N 29°41' W 094°60'0 0.0
2017-Nov-16 01:30N 29°41' W 094°60'0 0.0
2017-Nov-16 01:00N 29°41' W 094°60'0 0.0
2017-Nov-16 00:30N 29°41' W 094°60'0 0.0
2017-Nov-15 23:57N 29°41' W 094°60'0 0.2
2017-Nov-15 23:28N 29°41' W 094°60'0 0.9
2017-Nov-15 23:00N 29°41' W 094°59'1 2.3
2017-Nov-15 22:30N 29°40' W 094°59'3 6.4
2017-Nov-15 22:00N 29°42' W 095°01'0 0.0
2017-Nov-15 21:18N 29°42' W 095°01'0 0.0
2017-Nov-15 20:54N 29°42' W 095°01'0 0.2
2017-Nov-15 20:31N 29°42' W 095°01'0 0.2
2017-Nov-15 20:00N 29°42' W 095°01'0 0.0
2017-Nov-15 19:30N 29°42' W 095°01'0 0.0
2017-Nov-15 19:00N 29°42' W 095°01'0 0.0
2017-Nov-15 18:30N 29°42' W 095°01'0 0.0
2017-Nov-15 18:00N 29°42' W 095°01'0 0.0
2017-Nov-15 17:30N 29°42' W 095°01'0 0.0
2017-Nov-15 17:00N 29°42' W 095°01'0 0.0
2017-Nov-15 16:30N 29°42' W 095°01'0 0.0
2017-Nov-15 16:00N 29°42' W 095°01'0 0.0
2017-Nov-15 15:31N 29°42' W 095°01'0 0.0
2017-Nov-15 15:01N 29°42' W 095°01'0 0.0
2017-Nov-15 13:28N 29°42' W 095°01'3 6.6
2017-Nov-15 13:01N 29°40' W 094°59'4 6.8
2017-Nov-15 12:29N 29°37' W 094°60'1 1.5
2017-Nov-15 12:01N 29°37' W 095°01'0 0.4
2017-Nov-15 11:30N 29°37' W 095°01'3 5.1
2017-Nov-15 11:01N 29°37' W 094°58'1 1.4
2017-Nov-15 10:23N 29°36' W 094°57'4 9.8
2017-Nov-15 10:00N 29°40' W 094°59'3 6.3
2017-Nov-15 09:30N 29°42' W 095°01'0 0.0
2017-Nov-15 09:00N 29°42' W 095°01'0 0.0
2017-Nov-15 08:30N 29°42' W 095°01'0 0.0
2017-Nov-15 07:54N 29°42' W 095°01'0 0.0
2017-Nov-15 07:30N 29°42' W 095°01'0 0.0
2017-Nov-15 07:00N 29°42' W 095°01'0 0.0
2017-Nov-15 06:30N 29°42' W 095°01'0 0.0
2017-Nov-15 06:00N 29°42' W 095°01'0 0.0
2017-Nov-15 05:24N 29°42' W 095°01'0 0.0
2017-Nov-15 05:00N 29°42' W 095°01'0 0.0
2017-Nov-15 04:30N 29°42' W 095°01'0 0.0
2017-Nov-15 04:00N 29°42' W 095°01'0 0.0
2017-Nov-15 03:30N 29°42' W 095°01'0 0.0
2017-Nov-15 03:00N 29°42' W 095°01'0 0.0
2017-Nov-15 02:30N 29°42' W 095°01'0 0.0
2017-Nov-15 02:00N 29°42' W 095°01'0 0.0
2017-Nov-15 01:30N 29°42' W 095°01'1 1.2
2017-Nov-15 00:22N 29°44' W 095°01'2 2.6
2017-Nov-14 23:44N 29°44' W 095°03'2 6.7
2017-Nov-14 23:30N 29°44' W 095°01'1 2.8
2017-Nov-14 23:00N 29°42' W 095°01'0 0.0
2017-Nov-14 22:30N 29°42' W 095°01'0 0.0
2017-Nov-14 22:00N 29°42' W 095°01'0 0.0
2017-Nov-14 21:30N 29°42' W 095°01'0 0.0
2017-Nov-14 20:51N 29°42' W 095°01'0 0.0
2017-Nov-14 20:21N 29°42' W 095°01'0 0.0
2017-Nov-14 19:51N 29°42' W 095°01'2 5.4
2017-Nov-14 19:30N 29°41' W 094°60'1 1.6
2017-Nov-14 18:58N 29°41' W 095°01'0 0.2
2017-Nov-14 18:30N 29°41' W 095°00'2 3.5
2017-Nov-14 18:00N 29°40' W 094°59'1 1.9
2017-Nov-14 17:25N 29°41' W 094°60'0 0.0
2017-Nov-14 16:58N 29°41' W 094°60'0 0.0
2017-Nov-14 16:28N 29°41' W 094°60'0 0.0
2017-Nov-14 15:56N 29°41' W 094°60'0 0.7
2017-Nov-14 15:28N 29°41' W 095°00'0 1.1
2017-Nov-14 15:00N 29°41' W 094°60'0 0.8
2017-Nov-14 14:30N 29°41' W 094°59'0 0.0
2017-Nov-14 14:00N 29°41' W 094°59'0 0.4
2017-Nov-14 13:30N 29°41' W 094°59'0 0.1
2017-Nov-14 13:01N 29°41' W 094°59'2 3.7
2017-Nov-14 12:30N 29°42' W 095°01'0 0.2
2017-Nov-14 12:00N 29°42' W 095°01'0 0.0
2017-Nov-14 11:27N 29°42' W 095°01'0 0.0
2017-Nov-14 10:57N 29°42' W 095°01'0 0.0
2017-Nov-14 10:30N 29°42' W 095°01'0 0.0
2017-Nov-14 09:57N 29°42' W 095°01'0 0.0
2017-Nov-14 09:30N 29°42' W 095°01'0 0.0
2017-Nov-14 09:00N 29°42' W 095°01'0 0.0
2017-Nov-14 08:30N 29°42' W 095°01'0 0.0
2017-Nov-14 07:57N 29°42' W 095°01'0 0.0
2017-Nov-14 07:30N 29°42' W 095°01'0 0.0
2017-Nov-14 07:00N 29°42' W 095°01'0 0.0
2017-Nov-14 06:30N 29°42' W 095°01'0 0.0
2017-Nov-14 06:00N 29°42' W 095°01'0 0.0
2017-Nov-14 05:30N 29°42' W 095°01'0 0.0
2017-Nov-14 04:57N 29°42' W 095°01'0 0.0
2017-Nov-14 04:30N 29°42' W 095°01'0 0.0
2017-Nov-14 04:00N 29°42' W 095°01'0 0.0
2017-Nov-14 03:30N 29°42' W 095°01'0 0.0
2017-Nov-14 03:00N 29°42' W 095°01'0 0.0
2017-Nov-14 02:30N 29°42' W 095°01'0 0.0
2017-Nov-14 02:00N 29°42' W 095°01'2 2.9
2017-Nov-14 01:29N 29°44' W 095°02'  

Dump ship's entire track history